Time;durP1;ratioP1;P1;durP2;ratioP2;P2;SDS_P1;SDS_P2;PMS_P1;PMS_P2;Temp;Humidity;BMP_temperature;BMP_pressure;BME280_temperature;BME280_humidity;BME280_pressure;Samples;Min_cycle;Max_cycle;Signal;HPM_P1;HPM_P2
2022/05/19 00:01:24;;;;;;;29.50;25.92;;;;;;;18.93;95.59;101702.97;5027125;28;20374;-61
2022/05/19 00:03:49;;;;;;;29.63;26.67;;;;;;;18.92;95.39;101701.22;5027306;28;20021;-62
2022/05/19 00:06:15;;;;;;;28.52;25.52;;;;;;;18.91;95.67;101694.19;5026932;28;20028;-61
2022/05/19 00:08:41;;;;;;;28.40;25.60;;;;;;;18.90;96.00;101692.44;5026827;28;20508;-63
2022/05/19 00:11:14;;;;;;;29.95;26.88;;;;;;;18.89;95.71;101680.16;5027252;28;20385;-62
2022/05/19 00:13:40;;;;;;;30.15;26.00;;;;;;;18.86;96.10;101684.50;5026937;28;20319;-62
2022/05/19 00:16:06;;;;;;;28.83;25.92;;;;;;;18.86;95.87;101680.13;5026639;28;20033;-63
2022/05/19 00:18:33;;;;;;;29.17;26.17;;;;;;;18.87;95.74;101676.63;5026894;28;20461;-62
2022/05/19 00:20:59;;;;;;;31.08;27.80;;;;;;;18.84;96.03;101676.59;5026406;28;20120;-62
2022/05/19 00:23:24;;;;;;;30.20;26.90;;;;;;;18.82;96.27;101673.06;5026367;28;20126;-62
2022/05/19 00:25:49;;;;;;;29.83;26.92;;;;;;;18.79;96.69;101678.28;5026435;28;20014;-61
2022/05/19 00:28:15;;;;;;;28.98;26.15;;;;;;;18.76;97.11;101667.78;5026863;28;20021;-62
2022/05/19 00:30:41;;;;;;;30.15;26.83;;;;;;;18.72;97.66;101665.13;5026293;28;20552;-62
2022/05/19 00:33:08;;;;;;;29.58;26.50;;;;;;;18.67;97.77;101658.91;5026245;28;20029;-62
2022/05/19 00:35:34;;;;;;;28.77;26.10;;;;;;;18.67;97.83;101663.31;5026330;28;20065;-62
2022/05/19 00:37:59;;;;;;;34.20;28.30;;;;;;;18.63;97.98;101657.13;5026599;28;20018;-62
2022/05/19 00:40:25;;;;;;;33.28;27.92;;;;;;;18.62;98.35;101650.09;5026153;28;20032;-62
2022/05/19 00:42:51;;;;;;;31.77;28.45;;;;;;;18.63;98.33;101651.00;5027318;28;20377;-62
2022/05/19 00:45:26;;;;;;;32.25;29.02;;;;;;;18.59;98.93;101652.72;5030144;28;20028;-61
2022/05/19 00:48:03;;;;;;;30.58;27.27;;;;;;;18.58;98.80;101653.59;5030017;28;20051;-62
2022/05/19 00:50:32;;;;;;;30.58;27.25;;;;;;;18.54;99.00;101643.91;5029791;28;20021;-62
2022/05/19 00:53:04;;;;;;;31.88;28.80;;;;;;;18.54;99.02;101639.53;5030276;28;20370;-63
2022/05/19 00:55:38;;;;;;;32.50;29.10;;;;;;;18.54;99.32;101646.53;5029990;28;20391;-62
2022/05/19 00:58:33;;;;;;;30.20;27.25;;;;;;;18.52;99.16;101643.00;5026026;28;20036;-62
2022/05/19 01:00:58;;;;;;;31.38;28.15;;;;;;;18.49;99.35;101643.88;5029800;28;20064;-62
2022/05/19 01:03:27;;;;;;;30.65;27.85;;;;;;;18.45;99.84;101642.94;5030151;28;20114;-61
2022/05/19 01:06:00;;;;;;;31.33;28.13;;;;;;;18.42;99.94;101636.78;5029010;28;20041;-62
2022/05/19 01:08:46;;;;;;;31.35;28.15;;;;;;;18.39;100.00;101632.34;5029480;28;20405;-62
2022/05/19 01:11:15;;;;;;;31.33;28.13;;;;;;;18.35;100.00;101625.31;5028229;28;20036;-62
2022/05/19 01:13:42;;;;;;;32.20;28.92;;;;;;;18.31;100.00;101615.66;5030129;28;20021;-62
2022/05/19 01:16:08;;;;;;;31.88;28.75;;;;;;;18.27;100.00;101612.13;5029658;28;20017;-62
2022/05/19 01:18:36;;;;;;;32.65;28.73;;;;;;;18.24;100.00;101612.94;5029131;28;20070;-62
2022/05/19 01:21:03;;;;;;;34.53;31.02;;;;;;;18.19;100.00;101619.00;5030128;28;20024;-62
2022/05/19 01:23:37;;;;;;;32.78;29.45;;;;;;;18.13;100.00;101609.31;5030092;28;20357;-62
2022/05/19 01:26:02;;;;;;;32.67;29.55;;;;;;;18.10;100.00;101606.63;5029540;28;20017;-62
2022/05/19 01:28:28;;;;;;;33.22;30.17;;;;;;;18.05;100.00;101608.28;5029258;28;20033;-62
2022/05/19 01:30:54;;;;;;;34.20;30.80;;;;;;;18.03;100.00;101604.78;5029839;28;20483;-62
2022/05/19 01:33:19;;;;;;;33.97;30.55;;;;;;;18.00;100.00;101601.28;5028838;28;20108;-62
2022/05/19 01:35:44;;;;;;;33.90;30.52;;;;;;;17.95;100.00;101595.06;5028883;28;20362;-62
2022/05/19 01:38:42;;;;;;;36.17;30.67;;;;;;;17.90;100.00;101596.75;5029134;28;20018;-61
2022/05/19 01:41:18;;;;;;;32.88;29.70;;;;;;;17.84;100.00;101581.84;5013043;28;20052;-62
2022/05/19 01:44:08;;;;;;;33.05;29.75;;;;;;;17.77;100.00;101580.00;5029110;28;20072;-62
2022/05/19 01:46:37;;;;;;;33.95;30.35;;;;;;;17.74;100.00;101579.94;5027644;28;20021;-63
2022/05/19 01:49:14;;;;;;;33.95;30.55;;;;;;;17.71;100.00;101582.50;5027136;28;20481;-63
2022/05/19 01:52:02;;;;;;;33.67;30.35;;;;;;;17.67;100.00;101573.72;5028418;28;20022;-61
2022/05/19 01:54:43;;;;;;;35.78;32.00;;;;;;;17.66;100.00;101582.47;5029116;28;20013;-62
2022/05/19 01:57:21;;;;;;;35.63;31.20;;;;;;;17.65;100.00;101580.69;5025637;28;20037;-62
2022/05/19 01:59:59;;;;;;;34.42;30.60;;;;;;;17.64;100.00;101574.59;5028995;28;20017;-62
2022/05/19 02:02:33;;;;;;;35.88;32.08;;;;;;;17.63;100.00;101577.16;5028514;28;20026;-61
2022/05/19 02:05:07;;;;;;;34.65;31.38;;;;;;;17.63;100.00;101578.03;5028674;28;20033;-62
2022/05/19 02:07:37;;;;;;;36.25;32.58;;;;;;;17.63;100.00;101578.03;5028463;28;20037;-62
2022/05/19 02:10:10;;;;;;;34.58;31.02;;;;;;;17.64;100.00;101578.94;5028249;28;20029;-62
2022/05/19 02:12:37;;;;;;;33.72;30.23;;;;;;;17.65;100.00;101570.19;5027117;28;20059;-62
2022/05/19 02:15:07;;;;;;;33.22;30.10;;;;;;;17.66;100.00;101566.75;5028521;28;20061;-62
2022/05/19 02:17:34;;;;;;;34.13;30.83;;;;;;;17.67;100.00;101562.34;5028235;28;20091;-62
2022/05/19 02:20:13;;;;;;;33.95;30.55;;;;;;;17.69;100.00;101568.50;5028185;28;20053;-61
2022/05/19 02:22:42;;;;;;;34.58;31.15;;;;;;;17.69;100.00;101572.00;5026720;28;20108;-62
2022/05/19 02:25:13;;;;;;;32.95;29.83;;;;;;;17.71;100.00;101567.69;5025308;28;20473;-63
2022/05/19 02:28:03;;;;;;;32.05;28.80;;;;;;;17.72;100.00;101566.81;5027614;28;20078;-62
2022/05/19 02:30:32;;;;;;;32.30;28.45;;;;;;;17.73;100.00;101568.59;5025609;28;20020;-62
2022/05/19 02:32:58;;;;;;;31.35;28.20;;;;;;;17.75;100.00;101577.31;5028215;28;20040;-62
2022/05/19 02:35:24;;;;;;;29.15;26.45;;;;;;;17.79;100.00;101577.38;5027482;28;20418;-62
2022/05/19 02:37:51;;;;;;;30.20;27.25;;;;;;;17.81;100.00;101573.06;5027230;28;20025;-61
2022/05/19 02:40:19;;;;;;;27.80;24.98;;;;;;;17.85;100.00;101574.84;5027934;28;20033;-62
2022/05/19 02:42:45;;;;;;;28.08;25.15;;;;;;;17.86;100.00;101585.34;5028017;28;20048;-62
2022/05/19 02:45:12;;;;;;;26.83;24.13;;;;;;;17.90;100.00;101583.63;5027029;28;20033;-62
2022/05/19 02:47:37;;;;;;;27.13;24.33;;;;;;;17.91;100.00;101582.78;5027764;28;20047;-62
2022/05/19 02:50:04;;;;;;;26.10;23.63;;;;;;;17.93;100.00;101586.31;5027521;28;20033;-61
2022/05/19 02:52:29;;;;;;;25.38;22.98;;;;;;;17.95;100.00;101586.34;5027951;28;20221;-62
2022/05/19 02:54:54;;;;;;;25.25;22.95;;;;;;;17.97;100.00;101598.59;5027918;28;20401;-62
2022/05/19 02:57:20;;;;;;;23.92;21.73;;;;;;;17.98;100.00;101589.88;5027301;28;20017;-62
2022/05/19 02:59:45;;;;;;;22.70;20.70;;;;;;;18.02;100.00;101592.53;5027976;28;20041;-62
2022/05/19 03:02:11;;;;;;;23.58;21.40;;;;;;;18.04;100.00;101593.44;5027595;28;20026;-62
2022/05/19 03:04:36;;;;;;;23.20;21.00;;;;;;;18.06;100.00;101591.72;5027541;28;20516;-62
2022/05/19 03:07:02;;;;;;;22.20;20.10;;;;;;;18.09;100.00;101602.25;5027046;28;20456;-62
2022/05/19 03:09:27;;;;;;;21.75;19.55;;;;;;;18.13;100.00;101625.03;5024276;28;20549;-62
2022/05/19 03:11:52;;;;;;;23.20;20.05;;;;;;;18.15;100.00;101719.50;5027253;28;20400;-62
2022/05/19 03:14:18;;;;;;;25.67;22.75;;;;;;;18.15;100.00;101717.72;5027558;28;20032;-62
2022/05/19 03:16:43;;;;;;;27.35;24.65;;;;;;;18.20;100.00;101702.97;5026826;28;20461;-62
2022/05/19 03:19:12;;;;;;;26.05;23.42;;;;;;;18.23;100.00;101704.72;5027182;28;20112;-62
2022/05/19 03:21:38;;;;;;;23.85;21.13;;;;;;;18.30;100.00;101742.41;5026953;28;20105;-62
2022/05/19 03:24:04;;;;;;;22.08;20.05;;;;;;;18.38;99.13;101739.91;5026501;28;20108;-63
2022/05/19 03:26:29;;;;;;;22.00;19.88;;;;;;;18.44;99.88;101734.75;5027304;28;20139;-61
2022/05/19 03:28:54;;;;;;;22.63;20.40;;;;;;;18.50;99.38;101734.81;5027330;28;20457;-61
2022/05/19 03:31:19;;;;;;;21.20;18.95;;;;;;;18.55;98.73;101742.75;5027172;28;20026;-62
2022/05/19 03:33:45;;;;;;;22.17;20.02;;;;;;;18.57;98.59;101747.16;5026373;28;20457;-62
2022/05/19 03:36:10;;;;;;;22.33;20.42;;;;;;;18.60;98.39;101736.69;5026944;28;20061;-62
2022/05/19 03:38:36;;;;;;;20.60;18.63;;;;;;;18.62;98.78;101743.72;5027102;28;20564;-62
2022/05/19 03:41:02;;;;;;;21.30;19.10;;;;;;;18.62;99.08;101734.09;5027050;28;20029;-62
2022/05/19 03:43:27;;;;;;;21.95;19.77;;;;;;;18.64;100.00;101739.34;5027014;28;20452;-62
2022/05/19 03:45:53;;;;;;;21.90;19.83;;;;;;;18.62;100.00;101744.59;5027146;28;20033;-61
2022/05/19 03:48:18;;;;;;;20.75;18.60;;;;;;;18.60;100.00;101746.34;5026416;28;20296;-62
2022/05/19 03:50:45;;;;;;;21.70;19.73;;;;;;;18.58;100.00;101750.69;5026245;28;20179;-62
2022/05/19 03:53:11;;;;;;;22.38;20.15;;;;;;;18.56;100.00;101757.66;5024830;28;20547;-62
2022/05/19 03:55:37;;;;;;;22.45;20.35;;;;;;;18.55;100.00;101743.63;5025538;28;20038;-62
2022/05/19 03:58:03;;;;;;;23.80;21.08;;;;;;;18.56;100.00;101739.28;5023474;28;20021;-61
2022/05/19 04:00:28;;;;;;;24.00;21.70;;;;;;;18.56;100.00;101744.53;5024228;28;20083;-62
2022/05/19 04:02:53;;;;;;;24.83;22.63;;;;;;;18.56;100.00;101728.78;5026099;28;20033;-62
2022/05/19 04:05:18;;;;;;;24.25;21.92;;;;;;;18.54;100.00;101725.25;5026791;28;20461;-62
2022/05/19 04:07:44;;;;;;;26.17;23.45;;;;;;;18.55;100.00;101750.63;5026602;28;20025;-62
2022/05/19 04:10:11;;;;;;;25.20;22.45;;;;;;;18.54;100.00;101765.50;5026334;28;20084;-62
2022/05/19 04:12:37;;;;;;;25.42;22.92;;;;;;;18.54;100.00;101765.50;5026500;28;20060;-62
2022/05/19 04:15:05;;;;;;;23.58;20.98;;;;;;;18.52;100.00;101758.47;5026533;28;20080;-62
2022/05/19 04:17:33;;;;;;;25.55;23.27;;;;;;;18.47;100.00;101756.66;5024163;28;20412;-62
2022/05/19 04:20:00;;;;;;;26.10;23.67;;;;;;;18.42;100.00;101758.31;5030286;28;20030;-62
2022/05/19 04:22:25;;;;;;;26.42;23.80;;;;;;;18.38;100.00;101756.53;5030358;28;20029;-62
2022/05/19 04:24:50;;;;;;;26.48;23.98;;;;;;;18.37;100.00;101760.00;5030012;28;20539;-62
2022/05/19 04:27:16;;;;;;;27.52;24.83;;;;;;;18.36;100.00;101759.16;5030427;28;20023;-62
2022/05/19 04:29:41;;;;;;;26.75;24.25;;;;;;;18.38;100.00;101756.53;5030028;28;20029;-62
2022/05/19 04:32:07;;;;;;;26.27;23.75;;;;;;;18.39;100.00;101758.28;5030324;28;20032;-62
2022/05/19 04:34:32;;;;;;;27.50;24.90;;;;;;;18.40;100.00;101759.19;5030485;28;20025;-62
2022/05/19 04:36:58;;;;;;;26.70;24.20;;;;;;;18.40;100.00;101748.69;5031414;28;20060;-61
2022/05/19 04:39:23;;;;;;;25.95;23.55;;;;;;;18.40;100.00;101749.59;5030525;28;20022;-62
2022/05/19 04:41:48;;;;;;;26.25;23.88;;;;;;;18.43;100.00;101738.22;5029650;28;20468;-62
2022/05/19 04:44:13;;;;;;;30.10;27.02;;;;;;;18.43;100.00;101747.00;5030770;28;20021;-62
2022/05/19 04:46:39;;;;;;;26.60;24.02;;;;;;;18.43;100.00;101739.13;5030142;28;20083;-63
2022/05/19 04:49:04;;;;;;;27.65;25.10;;;;;;;18.43;100.00;101749.63;5030822;28;20396;-62
2022/05/19 04:51:29;;;;;;;25.92;23.65;;;;;;;18.46;100.00;101743.50;5030691;28;20033;-62
2022/05/19 04:53:54;;;;;;;27.17;24.83;;;;;;;18.45;100.00;101755.78;5030663;28;20528;-62
2022/05/19 04:56:20;;;;;;;25.63;23.27;;;;;;;18.47;100.00;101747.91;5030571;28;20029;-62
2022/05/19 04:58:45;;;;;;;26.35;23.90;;;;;;;18.47;100.00;101730.41;5030745;28;20021;-61
2022/05/19 05:01:10;;;;;;;26.70;24.13;;;;;;;18.50;100.00;101731.31;5030516;28;20083;-62
2022/05/19 05:03:35;;;;;;;28.23;25.20;;;;;;;18.53;100.00;101737.47;5030348;28;20587;-62
2022/05/19 05:06:02;;;;;;;27.27;24.70;;;;;;;18.55;100.00;101737.50;5030433;28;20028;-61
2022/05/19 05:08:27;;;;;;;28.27;25.58;;;;;;;18.56;100.00;101750.66;5030597;28;20359;-62
2022/05/19 05:10:53;;;;;;;25.50;23.20;;;;;;;18.57;100.00;101743.66;5030262;28;20033;-62
2022/05/19 05:13:18;;;;;;;24.60;22.10;;;;;;;18.58;100.00;101738.41;5030285;28;20025;-62
2022/05/19 05:15:43;;;;;;;23.73;21.52;;;;;;;18.61;100.00;101737.59;5029957;28;20029;-62
2022/05/19 05:18:09;;;;;;;26.08;23.58;;;;;;;18.61;100.00;101737.59;5030506;28;20472;-62
2022/05/19 05:20:37;;;;;;;26.00;23.40;;;;;;;18.60;100.00;101728.81;5029966;28;20108;-62
2022/05/19 05:23:03;;;;;;;24.83;22.40;;;;;;;18.62;100.00;101726.22;5024322;28;20037;-61
2022/05/19 05:25:29;;;;;;;24.88;22.52;;;;;;;18.62;100.00;101707.84;5030272;28;20350;-62
2022/05/19 05:27:56;;;;;;;24.80;22.65;;;;;;;18.63;100.00;101709.63;5029427;28;20040;-62
2022/05/19 05:30:22;;;;;;;22.50;20.30;;;;;;;18.63;100.00;101693.00;5029733;28;20410;-62
2022/05/19 05:32:47;;;;;;;21.35;19.48;;;;;;;18.63;100.00;101683.38;5029998;28;20025;-61
2022/05/19 05:35:12;;;;;;;20.85;18.85;;;;;;;18.63;100.00;101691.25;5029516;28;20041;-62
2022/05/19 05:37:37;;;;;;;22.08;19.88;;;;;;;18.59;100.00;101690.34;5029283;28;20026;-62
2022/05/19 05:40:07;;;;;;;22.55;20.40;;;;;;;18.59;100.00;101686.81;5029807;28;20021;-62
2022/05/19 05:42:32;;;;;;;24.35;21.80;;;;;;;18.54;100.00;101667.53;5029767;28;20426;-63
2022/05/19 05:44:58;;;;;;;23.40;21.00;;;;;;;18.52;100.00;101656.13;5029921;28;20109;-62
2022/05/19 05:47:23;;;;;;;23.88;21.10;;;;;;;18.44;100.00;101662.16;5029403;28;20103;-62
2022/05/19 05:49:48;;;;;;;23.10;20.88;;;;;;;18.42;100.00;101640.25;5029791;28;20025;-62
2022/05/19 05:52:14;;;;;;;21.85;19.75;;;;;;;18.40;100.00;101660.38;5029445;28;20079;-62
2022/05/19 05:54:39;;;;;;;19.85;17.77;;;;;;;18.34;100.00;101636.69;5029629;28;20127;-62
2022/05/19 05:57:04;;;;;;;19.77;17.90;;;;;;;18.29;100.00;101636.63;5028235;28;20037;-61
2022/05/19 05:59:30;;;;;;;20.70;18.73;;;;;;;18.24;100.00;101654.91;5029382;28;20547;-62
2022/05/19 06:01:55;;;;;;;20.85;19.02;;;;;;;18.23;100.00;101663.66;5029235;28;20073;-62
2022/05/19 06:04:20;;;;;;;20.55;18.85;;;;;;;18.20;100.00;101642.66;5028707;28;20021;-61
2022/05/19 06:06:46;;;;;;;20.88;18.85;;;;;;;18.22;100.00;101625.16;5028515;28;20029;-62
2022/05/19 06:09:13;;;;;;;22.42;20.35;;;;;;;18.23;100.00;101611.19;5028706;28;20099;-62
2022/05/19 06:11:39;;;;;;;21.33;19.17;;;;;;;18.24;100.00;101612.94;5029192;28;20030;-62
2022/05/19 06:14:04;;;;;;;20.83;18.83;;;;;;;18.27;100.00;101653.19;5029297;28;20170;-62
2022/05/19 06:16:30;;;;;;;20.83;18.73;;;;;;;18.29;100.00;101668.09;5028584;28;20225;-62
2022/05/19 06:18:55;;;;;;;20.10;18.35;;;;;;;18.35;100.00;101662.03;5027543;28;20030;-62
2022/05/19 06:21:21;;;;;;;19.75;18.02;;;;;;;18.38;100.00;101659.47;5029376;28;20424;-62
2022/05/19 06:23:47;;;;;;;20.30;18.35;;;;;;;18.41;100.00;101672.63;5029103;28;20505;-62
2022/05/19 06:26:12;;;;;;;22.50;20.55;;;;;;;18.43;100.00;101670.91;5028285;28;20108;-62
2022/05/19 06:28:37;;;;;;;24.98;22.58;;;;;;;18.44;100.00;101656.91;5027414;28;20381;-62
2022/05/19 06:31:03;;;;;;;24.55;22.15;;;;;;;18.46;100.00;101644.69;5028116;28;20030;-61
2022/05/19 06:33:29;;;;;;;24.13;21.80;;;;;;;18.49;100.00;101643.88;5025803;28;20056;-62
2022/05/19 06:35:55;;;;;;;23.85;21.92;;;;;;;18.51;100.00;101633.38;5027125;28;20045;-62
2022/05/19 06:38:20;;;;;;;23.35;21.38;;;;;;;18.54;100.00;101631.69;5027034;28;20076;-62
2022/05/19 06:40:46;;;;;;;25.48;23.33;;;;;;;18.58;100.00;101637.84;5024695;28;20041;-62
2022/05/19 06:43:15;;;;;;;24.60;22.33;;;;;;;18.62;100.00;101634.34;5026311;28;20029;-62
2022/05/19 06:45:43;;;;;;;25.23;23.00;;;;;;;18.66;100.00;101635.28;5026587;28;20044;-62
2022/05/19 06:48:09;;;;;;;25.70;23.38;;;;;;;18.70;100.00;101626.59;5026756;28;20022;-62
2022/05/19 06:50:34;;;;;;;24.02;22.00;;;;;;;18.72;100.00;101620.50;5026271;28;20028;-62
2022/05/19 06:53:03;;;;;;;25.27;23.17;;;;;;;18.76;100.00;101615.28;5026277;28;20340;-62
2022/05/19 06:55:31;;;;;;;25.38;23.17;;;;;;;18.74;100.00;101606.50;5026649;28;20373;-62
2022/05/19 06:57:56;;;;;;;27.20;24.60;;;;;;;18.73;100.00;101621.34;5027813;28;20033;-62
2022/05/19 07:00:24;;;;;;;25.58;23.42;;;;;;;18.72;100.00;101630.09;5027920;28;20034;-62
2022/05/19 07:02:52;;;;;;;26.45;23.95;;;;;;;18.70;100.00;101630.09;5027319;28;20033;-62
2022/05/19 07:05:19;;;;;;;26.25;23.80;;;;;;;18.76;100.00;101633.66;5027749;28;20032;-61
2022/05/19 07:07:48;;;;;;;25.38;23.13;;;;;;;18.81;100.00;101632.84;5028011;28;20026;-62
2022/05/19 07:10:15;;;;;;;24.00;22.10;;;;;;;18.88;100.00;101630.25;5026691;28;20033;-62
2022/05/19 07:12:40;;;;;;;23.70;21.70;;;;;;;18.92;100.00;101622.44;5027060;28;20163;-63
2022/05/19 07:15:06;;;;;;;23.85;21.85;;;;;;;18.98;100.00;101615.47;5027350;28;20112;-62
2022/05/19 07:17:31;;;;;;;22.15;20.38;;;;;;;19.00;100.00;101612.00;5026905;28;20136;-62
2022/05/19 07:22:40;;;;;;;22.92;21.02;;;;;;;19.06;100.00;101604.19;5025906;28;20103;-63
2022/05/19 07:25:08;;;;;;;22.10;20.00;;;;;;;19.13;100.00;101605.13;5024556;28;20424;-62
2022/05/19 07:27:33;;;;;;;23.90;21.90;;;;;;;19.16;100.00;101594.66;5026184;28;20025;-62
2022/05/19 07:30:00;;;;;;;22.90;20.88;;;;;;;19.25;100.00;101595.59;5026633;28;20037;-62
2022/05/19 07:32:26;;;;;;;22.27;20.05;;;;;;;19.38;100.00;101589.56;5027128;28;20396;-62
2022/05/19 07:34:52;;;;;;;20.77;19.08;;;;;;;19.49;100.00;101580.88;5025545;28;20476;-62
2022/05/19 07:37:17;;;;;;;20.30;18.58;;;;;;;19.58;100.00;101599.34;5027342;28;20041;-62
2022/05/19 07:39:43;;;;;;;21.17;19.48;;;;;;;19.58;100.00;101608.94;5027177;28;20026;-62
2022/05/19 07:42:08;;;;;;;22.45;20.50;;;;;;;19.62;100.00;101624.78;5027563;28;20087;-63
2022/05/19 07:44:35;;;;;;;21.25;19.27;;;;;;;19.66;100.00;101629.16;5027000;28;20029;-62
2022/05/19 07:47:00;;;;;;;20.52;18.88;;;;;;;19.72;100.00;101628.31;5027240;28;20451;-61
2022/05/19 07:49:25;;;;;;;20.35;18.67;;;;;;;19.87;100.00;101627.56;5027026;28;20182;-62
2022/05/19 07:51:50;;;;;;;20.13;18.40;;;;;;;20.11;100.00;101632.97;5027677;28;20588;-62
2022/05/19 07:54:26;;;;;;;21.75;19.63;;;;;;;20.34;100.00;101619.91;5030775;28;20551;-61
2022/05/19 07:56:52;;;;;;;20.95;19.13;;;;;;;20.62;100.00;101619.09;5031130;28;20249;-62
2022/05/19 07:59:19;;;;;;;20.48;18.75;;;;;;;20.87;100.00;101617.38;5031050;28;20505;-62
2022/05/19 08:01:45;;;;;;;20.27;18.60;;;;;;;21.13;98.26;101609.50;5031101;28;20036;-62
2022/05/19 08:04:11;;;;;;;20.77;18.77;;;;;;;21.53;98.05;101612.13;5031032;28;20033;-63
2022/05/19 08:06:37;;;;;;;18.20;16.55;;;;;;;21.86;92.07;101604.16;5030910;28;20024;-62
2022/05/19 08:10:20;;;;;;;19.00;17.30;;;;;;;22.26;88.67;101600.47;5030604;28;20032;-63
2022/05/19 08:11:50;;;;;;;17.80;15.98;;;;;;;22.60;87.83;101593.22;5030732;28;20033;-62
2022/05/19 08:16:59;;;;;;;16.08;14.63;;;;;;;22.98;81.98;101605.31;5031330;28;20036;-62
2022/05/19 08:19:24;;;;;;;16.50;14.82;;;;;;;23.19;81.34;101607.81;5031111;28;20424;-62
2022/05/19 08:21:50;;;;;;;31.33;16.92;;;;;;;23.44;79.78;101603.16;5031114;28;20021;-63
2022/05/19 08:24:15;;;;;;;18.00;13.95;;;;;;;23.71;79.85;101614.34;5031217;28;20029;-63
2022/05/19 08:26:41;;;;;;;14.63;13.23;;;;;;;23.94;77.74;101610.59;5030893;28;20021;-63
2022/05/19 08:29:06;;;;;;;13.55;12.35;;;;;;;23.97;75.10;101612.31;5031380;28;20037;-63
2022/05/19 08:31:31;;;;;;;13.27;11.90;;;;;;;24.18;74.89;101608.53;5030804;28;20057;-62
2022/05/19 08:33:58;;;;;;;13.20;11.75;;;;;;;24.23;72.70;101614.63;5031527;28;20441;-63
2022/05/19 08:36:27;;;;;;;10.73;9.75;;;;;;;24.51;73.00;101615.16;5030510;28;20413;-62
2022/05/19 08:38:52;;;;;;;14.10;9.52;;;;;;;24.57;68.26;101612.44;5031036;28;20079;-62
2022/05/19 08:41:27;;;;;;;10.95;9.70;;;;;;;24.55;69.67;101603.63;5030293;28;20045;-62
2022/05/19 08:44:14;;;;;;;13.52;10.23;;;;;;;24.79;68.75;101601.50;5030936;28;20025;-62
2022/05/19 08:46:45;;;;;;;10.73;9.73;;;;;;;24.95;67.61;101594.22;5030569;28;20033;-63
2022/05/19 08:49:32;;;;;;;10.13;9.13;;;;;;;24.93;65.24;101599.53;5030975;28;20025;-63
2022/05/19 08:52:34;;;;;;;10.50;9.50;;;;;;;25.15;66.89;101588.56;5030241;28;20034;-63
2022/05/19 08:54:59;;;;;;;10.05;8.70;;;;;;;25.34;66.46;101584.69;5026503;28;20037;-63
2022/05/19 08:57:52;;;;;;;9.98;7.68;;;;;;;25.33;66.13;101586.47;5030668;28;20446;-63
2022/05/19 09:00:24;;;;;;;9.38;7.95;;;;;;;25.48;65.76;101574.72;5030591;28;20091;-63
2022/05/19 09:03:33;;;;;;;9.63;7.93;;;;;;;25.70;64.84;101579.63;5030503;28;20032;-63
2022/05/19 09:06:05;;;;;;;15.30;8.40;;;;;;;25.72;61.04;101575.16;5030291;28;20124;-63
2022/05/19 09:08:51;;;;;;;9.18;6.47;;;;;;;25.73;61.68;101571.59;5030435;28;20030;-63
2022/05/19 09:11:24;;;;;;;9.73;8.73;;;;;;;25.38;60.78;101583.75;5030877;28;20041;-63
2022/05/19 09:14:06;;;;;;;8.70;7.95;;;;;;;25.01;63.31;101570.25;5030226;28;20339;-63
2022/05/19 09:16:38;;;;;;;9.50;8.52;;;;;;;24.99;63.06;101571.19;5030743;28;20035;-63
2022/05/19 09:19:18;;;;;;;9.43;8.27;;;;;;;24.94;63.45;101572.13;5030439;28;20025;-63
2022/05/19 09:21:48;;;;;;;10.52;8.15;;;;;;;25.04;63.45;101564.03;5030578;28;20373;-63
2022/05/19 09:24:14;;;;;;;14.23;7.72;;;;;;;25.14;64.66;101564.72;5030272;28;20025;-63
2022/05/19 09:26:54;;;;;;;8.50;7.10;;;;;;;25.30;63.15;101570.63;5028630;28;20029;-63
2022/05/19 09:29:40;;;;;;;9.10;6.87;;;;;;;25.55;63.08;101559.53;5029886;28;20523;-63
2022/05/19 09:32:10;;;;;;;6.03;5.50;;;;;;;25.84;63.94;101560.75;5025266;28;20770;-63
2022/05/19 09:34:36;;;;;;;9.95;6.57;;;;;;;25.98;62.15;101551.59;5030027;28;20048;-63
2022/05/19 09:37:16;;;;;;;8.23;7.07;;;;;;;26.09;61.02;101549.59;5029126;28;20073;-63
2022/05/19 09:39:58;;;;;;;6.07;5.45;;;;;;;26.10;61.34;101558.44;5029031;28;20056;-63
2022/05/19 09:42:34;;;;;;;9.60;6.50;;;;;;;26.10;59.73;101559.31;5029313;28;20021;-64
2022/05/19 09:44:59;;;;;;;7.93;6.40;;;;;;;26.01;60.29;101563.03;5029062;28;20029;-63
2022/05/19 09:47:36;;;;;;;6.25;5.28;;;;;;;26.08;61.65;101558.50;5029076;28;20018;-63
2022/05/19 09:50:24;;;;;;;8.88;5.45;;;;;;;26.03;60.81;101557.69;5022536;28;20018;-63
2022/05/19 09:52:50;;;;;;;5.47;4.95;;;;;;;26.06;62.76;101560.28;5028943;28;20036;-63
2022/05/19 09:55:23;;;;;;;6.07;4.90;;;;;;;26.01;61.12;101562.19;5028734;28;20100;-63
2022/05/19 09:57:56;;;;;;;7.93;4.68;;;;;;;25.99;60.90;101553.38;5028610;28;20163;-64
2022/05/19 10:00:31;;;;;;;6.22;4.80;;;;;;;26.04;61.84;101548.84;5028503;28;20500;-63
2022/05/19 10:02:59;;;;;;;6.30;4.63;;;;;;;26.12;61.22;101544.22;5028964;28;20034;-64
2022/05/19 10:05:31;;;;;;;8.13;4.90;;;;;;;26.17;61.69;101538.81;5028607;28;20029;-64
2022/05/19 10:08:05;;;;;;;5.43;4.13;;;;;;;26.21;62.91;101531.66;5028469;28;20131;-64
2022/05/19 10:10:34;;;;;;;4.65;3.88;;;;;;;26.26;62.27;101533.28;5028753;28;20417;-64
2022/05/19 10:13:11;;;;;;;6.78;4.15;;;;;;;26.28;61.27;101520.00;5022416;28;20132;-63
2022/05/19 10:15:58;;;;;;;7.47;4.07;;;;;;;26.36;60.50;101511.84;5021828;28;20440;-63
2022/05/19 10:18:53;;;;;;;5.85;3.92;;;;;;;26.45;59.78;101494.81;5027095;28;20432;-63
2022/05/19 10:21:21;;;;;;;5.55;4.07;;;;;;;26.54;58.04;101485.72;5023359;28;20061;-63
2022/05/19 10:23:58;;;;;;;7.72;4.40;;;;;;;26.64;57.52;101483.72;5028332;28;20090;-63
2022/05/19 10:26:41;;;;;;;6.47;4.28;;;;;;;26.75;57.46;101492.28;5028249;28;20052;-64
2022/05/19 10:32:14;;;;;;;5.72;3.78;;;;;;;26.92;54.53;101498.94;5028723;28;20060;-63
2022/05/19 10:34:49;;;;;;;6.55;3.70;;;;;;;26.96;55.88;101498.84;5028477;28;20057;-63
2022/05/19 10:37:38;;;;;;;4.55;3.85;;;;;;;26.98;55.88;101490.81;5027664;28;20107;-63
2022/05/19 10:40:29;;;;;;;5.38;3.55;;;;;;;27.14;53.55;101485.09;5028299;28;20374;-63
2022/05/19 10:43:03;;;;;;;;;;;;;;;27.20;53.16;101496.44;5028502;28;20435;-63
2022/05/19 10:45:40;;;;;;;7.35;3.33;;;;;;;27.27;53.66;101497.13;5027582;28;19909;-63
2022/05/19 10:48:31;;;;;;;4.35;3.45;;;;;;;27.21;52.41;101503.50;5028331;28;20057;-63
2022/05/19 10:51:09;;;;;;;6.10;3.70;;;;;;;27.20;52.78;101500.91;5028036;28;20514;-64
2022/05/19 10:53:44;;;;;;;4.90;3.63;;;;;;;27.04;51.70;101485.34;5027319;28;20858;-63
2022/05/19 10:56:23;;;;;;;6.95;3.70;;;;;;;26.92;50.56;101486.53;5026003;28;20037;-64
2022/05/19 10:59:03;;;;;;;4.65;3.65;;;;;;;26.94;52.90;101481.16;5027825;28;20022;-63
2022/05/19 11:01:37;;;;;;;4.67;2.77;;;;;;;27.02;52.18;101481.81;5028279;28;20329;-63
2022/05/19 11:04:05;;;;;;;3.30;3.00;;;;;;;27.08;52.87;101487.00;5027674;28;20029;-63
2022/05/19 11:06:52;;;;;;;7.05;3.83;;;;;;;27.07;51.60;101477.28;5027868;28;20516;-63
2022/05/19 11:09:43;;;;;;;6.50;3.40;;;;;;;27.13;52.77;101475.38;5027063;28;20037;-63
2022/05/19 11:12:57;;;;;;;6.80;3.40;;;;;;;27.13;51.70;101483.38;5027298;28;20385;-64
2022/05/19 11:15:38;;;;;;;5.25;3.42;;;;;;;26.94;50.51;101481.16;5010526;28;20142;-63
2022/05/19 11:18:17;;;;;;;4.55;3.15;;;;;;;26.84;50.89;101478.75;5027097;28;20098;-63
2022/05/19 11:21:05;;;;;;;4.45;3.53;;;;;;;26.70;51.31;101475.59;5027269;28;20033;-63
2022/05/19 11:23:47;;;;;;;5.05;2.80;;;;;;;26.58;53.12;101490.94;5023851;28;20041;-64
2022/05/19 11:26:47;;;;;;;4.68;3.25;;;;;;;26.45;54.28;101492.16;5021974;28;20048;-63
2022/05/19 11:29:28;;;;;;;4.30;2.90;;;;;;;26.35;55.87;101497.72;5025973;28;20049;-63
2022/05/19 11:32:15;;;;;;;6.40;3.20;;;;;;;26.21;57.06;101507.75;5021494;28;20033;-63